Decoded Metar for YPJT (PERTH in AUSTRALIA) (IATA:JAD) | Meteo·Mobile Aviation Weather
aviador You're here:

YPJT Decoded Metar

PERTH in AUSTRALIA
Report Time2019-02-22 14:00:00
UTC Time2019-02-22 14:21:42
Flight Rules vfr VFR
Wind190° at 02 kt
W.Decomp.*RWY 24: 1.3 kt HW 1.5 kt LCW
RWY 12: 0.7 kt HW 1.9 kt RCW
W.Rank190° ranks 3
Current wind is below 190° avg. (7.0)
Visibility9999 m
Phenomena:N/A
Clouds:N/A
Expected CloudBase > 800 ft AGL from Temp-Dew spread
CeilingNone
Temp17°C (ISA +2)
Dew Point15°C (88% RH)
QNH1015 hPa
Density Alt515 ft
Elevation98 ft
Report Wrong Elevation
Raw Report
METAR YPJT 221400Z AUTO 19002KT 9999 // NCD 17/15 Q1015
RF00.0/000.0=

Extra information for YPJT:More info

Metar Taf Metar & Taf Last 4 Metars F.Rules Stats Wind Profile Meteogram Temp Stats Airport Information Weather charts Add Link Nearby VenuesMetar ALERT Operation Metar Decoded Social comments